Terminal Aerodrome Forecast
Issued by NWS

Home | Current Version | Previous Version | Text Only | Print | Product List | Glossary On
Versions: 1 2 3 4 5 6 7 8 9 10 11 12 13 14 15 16 17 18 19 20 21
000
FTUS43 KDMX 211720
TAFMCW
TAF
KMCW 211720Z 2118/2218 VRB04KT P6SM BKN150
     FM221400 09007KT P6SM VCSH OVC027
     FM221700 09008KT 3SM -SN OVC018=

USA.gov is the U.S. government's official web portal to all federal, state and local government web resources and services.